Terminal Aerodrome Forecast
Issued by NWS

Home | Current Version | Previous Version | Text Only | Print | Product List | Glossary On
Versions: 1 2 3 4 5 6 7 8 9 10 11 12 13 14 15 16 17
000
FTUS45 KRIW 040500
TAFLND
TAF
KLND 040535Z 0406/0506 VRB10G15KT P6SM VCSH BKN070
     FM041100 VRB05KT P6SM FEW015 SCT150
     FM041900 VRB10G15KT P6SM VCSH SCT100 BKN150
     FM050300 25010KT P6SM SCT100 BKN150=

USA.gov is the U.S. government's official web portal to all federal, state and local government web resources and services.